»·PEaware :: N360TX KBOI-KSUN

N360TX :: KBOI-KSUN

FLIGHT INFORMATION

Flight Status: Arrived
Operator: Privately registered:
United States
More flights under this callsign
Pilot: Russell E. (6054)
Aircraft: CESSNA 182 SKYLANE
(C182)
More flights by this aircraft type
Origin: KBOI Boise Air Terminal/Gowen
United States
Destination: KSUN Friedman Meml
United States
More flights between these airports :: More routes between these airports
Route: +AROWS V500 SOLDE
File this flight plan on PilotEdge
Remarks:
Altitude:
(Current/Filed)
9,000ft
Speed:
(Current/Filed)
125kts
Departed: 27-Aug-18 08:24 AM
Arrived: 27-Aug-18 09:24 AM
Distance/Time
Traveled:
84nm/1:00
Distance/Time
To Go:
Arrived

Flight Plot

Page will automatically refresh every two minutes.

Flight plan parsing failed; only flown route is shown


Map Options




Map Legend


Flown Route
Filed Route
Departure Airport
Arrival Airport
Navaid (VOR, NDB)
Fix

Horizontal Profiles

Position Reports

Time Latitude Longitude Heading Altitude Ground
Speed
27-Aug-18 07:59 43.570152 -116.223613 93 2874ft 0kts
27-Aug-18 08:00 43.570152 -116.223613 93 2874ft 0kts
27-Aug-18 08:01 43.570152 -116.223613 93 2874ft 0kts
27-Aug-18 08:02 43.570152 -116.223613 93 2874ft 0kts
27-Aug-18 08:03 43.570152 -116.223613 93 2874ft 0kts
27-Aug-18 08:04 43.570152 -116.223613 93 2874ft 0kts
27-Aug-18 08:05 43.570152 -116.223613 93 2874ft 0kts
27-Aug-18 08:06 43.570152 -116.223613 93 2874ft 0kts
27-Aug-18 08:07 43.570152 -116.223612 93 2874ft 0kts
27-Aug-18 08:08 43.570152 -116.223612 93 2874ft 0kts
27-Aug-18 08:09 43.570152 -116.223612 93 2874ft 0kts
27-Aug-18 08:10 43.570152 -116.223611 93 2874ft 0kts
27-Aug-18 08:11 43.570152 -116.223610 93 2874ft 0kts
27-Aug-18 08:12 43.570152 -116.223608 93 2874ft 0kts
27-Aug-18 08:13 43.570152 -116.223606 93 2874ft 0kts
27-Aug-18 08:14 43.570152 -116.223604 93 2874ft 0kts
27-Aug-18 08:15 43.570152 -116.223602 93 2874ft 0kts
27-Aug-18 08:16 43.570152 -116.223600 94 2874ft 0kts
27-Aug-18 08:17 43.570152 -116.223598 94 2874ft 0kts
27-Aug-18 08:18 43.570151 -116.223596 94 2874ft 0kts
27-Aug-18 08:19 43.570151 -116.223593 94 2874ft 0kts
27-Aug-18 08:20 43.570151 -116.223591 94 2874ft 0kts
27-Aug-18 08:21 43.569240 -116.225645 193 2874ft 9kts
27-Aug-18 08:22 43.569101 -116.229710 290 2874ft 18kts
27-Aug-18 08:23 43.570940 -116.236075 197 2874ft 0kts
27-Aug-18 08:24 43.570227 -116.236346 176 2874ft 0kts
27-Aug-18 08:25 43.563909 -116.215321 116 3347ft 86kts
27-Aug-18 08:32 43.570152 -116.223606 93 2874ft 0kts
27-Aug-18 08:33 43.570152 -116.223603 93 2874ft 0kts
27-Aug-18 08:34 43.570151 -116.223594 95 2874ft 0kts
27-Aug-18 08:35 43.567849 -116.226315 291 2874ft 21kts
27-Aug-18 08:36 43.571050 -116.236637 117 2874ft 4kts
27-Aug-18 08:37 43.570814 -116.236078 178 2874ft 0kts
27-Aug-18 08:38 43.570814 -116.236078 178 2874ft 0kts
27-Aug-18 08:39 43.570004 -116.236062 163 2874ft 17kts
27-Aug-18 08:40 43.559534 -116.207324 114 3387ft 112kts
27-Aug-18 08:41 43.545865 -116.163743 114 4091ft 129kts
27-Aug-18 08:42 43.531170 -116.118346 114 4787ft 130kts
27-Aug-18 08:43 43.516529 -116.073092 114 5474ft 128kts
27-Aug-18 08:44 43.500985 -116.029313 117 6160ft 126kts
27-Aug-18 08:45 43.485507 -115.986085 113 6841ft 125kts
27-Aug-18 08:46 43.471590 -115.942627 114 7527ft 123kts
27-Aug-18 08:47 43.458160 -115.900346 113 8221ft 119kts
27-Aug-18 08:48 43.444872 -115.858653 114 8926ft 116kts
27-Aug-18 08:49 43.431776 -115.818015 114 9548ft 122kts
27-Aug-18 08:50 43.417188 -115.773575 114 9986ft 131kts
27-Aug-18 08:51 43.415530 -115.726561 63 10351ft 134kts
27-Aug-18 08:52 43.428743 -115.677473 59 10760ft 132kts
27-Aug-18 08:53 43.441601 -115.628369 64 11020ft 144kts
27-Aug-18 08:54 43.442480 -115.571166 93 11019ft 157kts
27-Aug-18 08:55 43.437240 -115.511023 93 11017ft 158kts
27-Aug-18 08:56 43.429905 -115.451123 102 11016ft 159kts
27-Aug-18 08:57 43.418423 -115.391904 103 11015ft 160kts
27-Aug-18 08:58 43.407083 -115.332167 103 11017ft 160kts
27-Aug-18 08:59 43.395801 -115.272879 102 11018ft 160kts
27-Aug-18 09:00 43.380662 -115.215928 94 11018ft 160kts
27-Aug-18 09:01 43.372657 -115.159158 100 11012ft 135kts
27-Aug-18 09:02 43.362290 -115.103576 104 11023ft 159kts
27-Aug-18 09:03 43.350630 -115.044172 104 11002ft 162kts
27-Aug-18 09:04 43.342578 -115.003691 104 11002ft 162kts
27-Aug-18 09:05 43.330898 -114.945067 104 11006ft 161kts
27-Aug-18 09:06 43.319077 -114.885690 104 11012ft 161kts
27-Aug-18 09:07 43.307108 -114.825839 104 11016ft 162kts
27-Aug-18 09:08 43.295051 -114.765808 104 11014ft 162kts
27-Aug-18 09:09 43.283025 -114.706078 104 11013ft 162kts
27-Aug-18 09:10 43.270921 -114.646074 104 11012ft 163kts
27-Aug-18 09:11 43.258819 -114.586339 104 11011ft 163kts
27-Aug-18 09:12 43.246690 -114.523877 104 10556ft 177kts
27-Aug-18 09:13 43.234752 -114.461709 104 10403ft 161kts
27-Aug-18 09:14 43.223600 -114.403884 104 10410ft 159kts
27-Aug-18 09:15 43.212058 -114.343970 104 10411ft 158kts
27-Aug-18 09:16 43.226687 -114.294309 26 9887ft 162kts
27-Aug-18 09:17 43.263241 -114.255600 35 9082ft 166kts
27-Aug-18 09:18 43.298595 -114.218221 35 8596ft 153kts
27-Aug-18 09:19 43.331871 -114.183674 26 8604ft 144kts
27-Aug-18 09:20 43.367362 -114.197199 333 8604ft 139kts
27-Aug-18 09:21 43.403040 -114.221413 331 7838ft 144kts
27-Aug-18 09:22 43.437033 -114.245028 329 7050ft 113kts
27-Aug-18 09:23 43.463728 -114.263534 329 6196ft 96kts
27-Aug-18 09:24 43.484572 -114.278083 327 5606ft 82kts
27-Aug-18 09:25 43.500080 -114.291971 322 5290ft 38kts
27-Aug-18 09:26 43.505458 -114.298528 227 5290ft 18kts

Navigation Log

Ident Type
Flight plan parsing failed, navigation log unavailable